Mountain Home, Idaho
Current Conditions -  °F | °C
As of 10:58 AM on Thursday 27 Nov 2014 (Local Time) from KMUO Reporting Station
Overcast Overcast  
Wind Chill: 43°   Ceiling: 11000
Heat Index: 49°   Visibility: 10mi
Dew Point: 40°   Wind: 15mph
Humidity: 70%   Direction: 90°E
Pressure: 30.16"   Gusts: NA
Location:  43.13°N, 115.69°W
Report Text: KMUO 271758Z AUTO 09013KT 10SM OVC110 09/04 A3016 RMK AO2 SLP216 60000 T00940042 10094 20060 58006
Loading
Personal Weather Stations






























Interactive Weather Map New forecast layout! Learn more

10-Day Weather Forecast

Advertisements
Track Severe Weather on mobile